sensor_id;sensor_type;location;lat;lon;timestamp;P1;durP1;ratioP1;P2;durP2;ratioP2
66118;SDS011;52912;48.564;9.302;2022-10-17T00:01:57;4.03;;;2.00;;
66118;SDS011;52912;48.564;9.302;2022-10-17T00:04:22;3.85;;;1.85;;
66118;SDS011;52912;48.564;9.302;2022-10-17T00:06:48;6.45;;;1.83;;
66118;SDS011;52912;48.564;9.302;2022-10-17T00:09:13;9.25;;;1.92;;
66118;SDS011;52912;48.564;9.302;2022-10-17T00:11:39;6.28;;;1.90;;
66118;SDS011;52912;48.564;9.302;2022-10-17T00:14:04;3.50;;;1.90;;
66118;SDS011;52912;48.564;9.302;2022-10-17T00:16:32;5.65;;;2.17;;
66118;SDS011;52912;48.564;9.302;2022-10-17T00:18:59;3.90;;;1.90;;
66118;SDS011;52912;48.564;9.302;2022-10-17T00:21:25;8.32;;;2.13;;
66118;SDS011;52912;48.564;9.302;2022-10-17T00:23:51;8.45;;;2.33;;
66118;SDS011;52912;48.564;9.302;2022-10-17T00:26:16;7.18;;;2.38;;
66118;SDS011;52912;48.564;9.302;2022-10-17T00:28:44;7.03;;;3.38;;
66118;SDS011;52912;48.564;9.302;2022-10-17T00:31:10;6.07;;;2.57;;
66118;SDS011;52912;48.564;9.302;2022-10-17T00:33:37;5.65;;;2.88;;
66118;SDS011;52912;48.564;9.302;2022-10-17T00:36:03;4.82;;;2.78;;
66118;SDS011;52912;48.564;9.302;2022-10-17T00:38:30;8.77;;;3.40;;
66118;SDS011;52912;48.564;9.302;2022-10-17T00:40:56;11.85;;;3.30;;
66118;SDS011;52912;48.564;9.302;2022-10-17T00:43:21;6.57;;;3.28;;
66118;SDS011;52912;48.564;9.302;2022-10-17T00:45:47;16.88;;;3.80;;
66118;SDS011;52912;48.564;9.302;2022-10-17T00:48:12;4.82;;;3.33;;
66118;SDS011;52912;48.564;9.302;2022-10-17T00:50:42;6.18;;;3.03;;
66118;SDS011;52912;48.564;9.302;2022-10-17T00:53:10;6.00;;;3.35;;
66118;SDS011;52912;48.564;9.302;2022-10-17T00:55:36;6.70;;;3.10;;
66118;SDS011;52912;48.564;9.302;2022-10-17T00:58:06;5.10;;;2.78;;
66118;SDS011;52912;48.564;9.302;2022-10-17T01:00:31;8.13;;;2.72;;
66118;SDS011;52912;48.564;9.302;2022-10-17T01:02:57;5.93;;;2.70;;
66118;SDS011;52912;48.564;9.302;2022-10-17T01:05:22;6.43;;;2.75;;
66118;SDS011;52912;48.564;9.302;2022-10-17T01:07:49;9.23;;;2.92;;
66118;SDS011;52912;48.564;9.302;2022-10-17T01:10:18;8.32;;;2.83;;
66118;SDS011;52912;48.564;9.302;2022-10-17T01:12:47;16.70;;;2.67;;
66118;SDS011;52912;48.564;9.302;2022-10-17T01:15:22;7.22;;;2.78;;
66118;SDS011;52912;48.564;9.302;2022-10-17T01:18:02;6.43;;;2.60;;
66118;SDS011;52912;48.564;9.302;2022-10-17T01:20:51;6.10;;;2.63;;
66118;SDS011;52912;48.564;9.302;2022-10-17T01:26:43;9.55;;;4.25;;
66118;SDS011;52912;48.564;9.302;2022-10-17T01:29:32;9.10;;;4.90;;
66118;SDS011;52912;48.564;9.302;2022-10-17T01:32:10;11.32;;;5.10;;
66118;SDS011;52912;48.564;9.302;2022-10-17T01:34:41;7.95;;;4.05;;
66118;SDS011;52912;48.564;9.302;2022-10-17T01:37:12;8.52;;;3.75;;
66118;SDS011;52912;48.564;9.302;2022-10-17T01:39:43;7.63;;;3.20;;
66118;SDS011;52912;48.564;9.302;2022-10-17T01:42:12;8.43;;;3.25;;
66118;SDS011;52912;48.564;9.302;2022-10-17T01:44:41;5.25;;;2.83;;
66118;SDS011;52912;48.564;9.302;2022-10-17T01:47:14;6.60;;;2.30;;
66118;SDS011;52912;48.564;9.302;2022-10-17T01:49:44;5.47;;;2.83;;
66118;SDS011;52912;48.564;9.302;2022-10-17T01:52:12;5.03;;;2.50;;
66118;SDS011;52912;48.564;9.302;2022-10-17T01:54:43;3.38;;;2.20;;
66118;SDS011;52912;48.564;9.302;2022-10-17T01:59:40;8.60;;;2.33;;
66118;SDS011;52912;48.564;9.302;2022-10-17T02:02:07;11.65;;;2.70;;
66118;SDS011;52912;48.564;9.302;2022-10-17T02:04:34;6.05;;;2.50;;
66118;SDS011;52912;48.564;9.302;2022-10-17T02:07:04;5.45;;;2.63;;
66118;SDS011;52912;48.564;9.302;2022-10-17T02:09:31;8.63;;;2.72;;
66118;SDS011;52912;48.564;9.302;2022-10-17T02:14:45;7.15;;;2.53;;
66118;SDS011;52912;48.564;9.302;2022-10-17T02:17:25;9.38;;;2.67;;
66118;SDS011;52912;48.564;9.302;2022-10-17T02:20:01;9.02;;;2.58;;
66118;SDS011;52912;48.564;9.302;2022-10-17T02:22:36;6.68;;;2.30;;
66118;SDS011;52912;48.564;9.302;2022-10-17T02:25:06;5.53;;;2.30;;
66118;SDS011;52912;48.564;9.302;2022-10-17T02:27:39;2.92;;;1.65;;
66118;SDS011;52912;48.564;9.302;2022-10-17T02:30:09;3.67;;;2.00;;
66118;SDS011;52912;48.564;9.302;2022-10-17T02:32:41;9.70;;;2.17;;
66118;SDS011;52912;48.564;9.302;2022-10-17T02:35:13;5.10;;;2.22;;
66118;SDS011;52912;48.564;9.302;2022-10-17T02:37:41;4.60;;;2.10;;
66118;SDS011;52912;48.564;9.302;2022-10-17T02:40:09;4.57;;;2.65;;
66118;SDS011;52912;48.564;9.302;2022-10-17T02:42:37;5.78;;;2.50;;
66118;SDS011;52912;48.564;9.302;2022-10-17T02:45:03;4.45;;;2.38;;
66118;SDS011;52912;48.564;9.302;2022-10-17T02:47:31;5.63;;;2.47;;
66118;SDS011;52912;48.564;9.302;2022-10-17T02:50:00;3.65;;;2.15;;
66118;SDS011;52912;48.564;9.302;2022-10-17T02:52:28;4.65;;;2.40;;
66118;SDS011;52912;48.564;9.302;2022-10-17T02:55:02;8.38;;;2.40;;
66118;SDS011;52912;48.564;9.302;2022-10-17T02:57:33;7.30;;;2.55;;
66118;SDS011;52912;48.564;9.302;2022-10-17T03:00:03;4.57;;;2.40;;
66118;SDS011;52912;48.564;9.302;2022-10-17T03:02:37;13.10;;;2.67;;
66118;SDS011;52912;48.564;9.302;2022-10-17T03:05:03;9.02;;;2.30;;
66118;SDS011;52912;48.564;9.302;2022-10-17T03:07:31;4.82;;;2.35;;
66118;SDS011;52912;48.564;9.302;2022-10-17T03:09:56;6.65;;;2.40;;
66118;SDS011;52912;48.564;9.302;2022-10-17T03:12:22;4.18;;;2.30;;
66118;SDS011;52912;48.564;9.302;2022-10-17T03:14:47;5.78;;;2.40;;
66118;SDS011;52912;48.564;9.302;2022-10-17T03:17:12;6.32;;;2.28;;
66118;SDS011;52912;48.564;9.302;2022-10-17T03:19:38;6.05;;;2.42;;
66118;SDS011;52912;48.564;9.302;2022-10-17T03:22:03;3.55;;;2.10;;
66118;SDS011;52912;48.564;9.302;2022-10-17T03:24:30;5.03;;;2.30;;
66118;SDS011;52912;48.564;9.302;2022-10-17T03:26:55;8.45;;;2.45;;
66118;SDS011;52912;48.564;9.302;2022-10-17T03:29:21;8.02;;;2.35;;
66118;SDS011;52912;48.564;9.302;2022-10-17T03:31:47;6.03;;;2.60;;
66118;SDS011;52912;48.564;9.302;2022-10-17T03:34:12;13.57;;;2.58;;
66118;SDS011;52912;48.564;9.302;2022-10-17T03:36:37;4.93;;;2.20;;
66118;SDS011;52912;48.564;9.302;2022-10-17T03:39:03;9.75;;;2.40;;
66118;SDS011;52912;48.564;9.302;2022-10-17T03:41:30;10.52;;;2.40;;
66118;SDS011;52912;48.564;9.302;2022-10-17T03:43:55;11.32;;;2.90;;
66118;SDS011;52912;48.564;9.302;2022-10-17T03:46:21;17.20;;;2.85;;
66118;SDS011;52912;48.564;9.302;2022-10-17T03:48:46;5.70;;;2.38;;
66118;SDS011;52912;48.564;9.302;2022-10-17T03:51:11;3.15;;;2.13;;
66118;SDS011;52912;48.564;9.302;2022-10-17T03:53:37;9.90;;;2.63;;
66118;SDS011;52912;48.564;9.302;2022-10-17T03:56:09;9.82;;;2.40;;
66118;SDS011;52912;48.564;9.302;2022-10-17T03:58:38;5.72;;;2.45;;
66118;SDS011;52912;48.564;9.302;2022-10-17T04:01:04;6.13;;;2.42;;
66118;SDS011;52912;48.564;9.302;2022-10-17T04:03:30;12.40;;;2.58;;
66118;SDS011;52912;48.564;9.302;2022-10-17T04:05:57;8.63;;;2.45;;
66118;SDS011;52912;48.564;9.302;2022-10-17T04:08:22;4.80;;;2.40;;
66118;SDS011;52912;48.564;9.302;2022-10-17T04:10:48;6.07;;;2.38;;
66118;SDS011;52912;48.564;9.302;2022-10-17T04:13:13;6.72;;;2.47;;
66118;SDS011;52912;48.564;9.302;2022-10-17T04:15:40;7.47;;;2.40;;
66118;SDS011;52912;48.564;9.302;2022-10-17T04:18:05;5.93;;;2.03;;
66118;SDS011;52912;48.564;9.302;2022-10-17T04:20:31;6.53;;;2.30;;
66118;SDS011;52912;48.564;9.302;2022-10-17T04:22:58;5.03;;;2.42;;
66118;SDS011;52912;48.564;9.302;2022-10-17T04:25:24;8.73;;;2.10;;
66118;SDS011;52912;48.564;9.302;2022-10-17T04:27:49;6.25;;;2.20;;
66118;SDS011;52912;48.564;9.302;2022-10-17T04:30:15;4.75;;;2.15;;
66118;SDS011;52912;48.564;9.302;2022-10-17T04:32:42;7.22;;;2.53;;
66118;SDS011;52912;48.564;9.302;2022-10-17T04:35:07;4.93;;;2.40;;
66118;SDS011;52912;48.564;9.302;2022-10-17T04:37:33;6.47;;;2.17;;
66118;SDS011;52912;48.564;9.302;2022-10-17T04:39:58;10.52;;;2.30;;
66118;SDS011;52912;48.564;9.302;2022-10-17T04:42:24;5.57;;;2.20;;
66118;SDS011;52912;48.564;9.302;2022-10-17T04:44:49;7.28;;;2.20;;
66118;SDS011;52912;48.564;9.302;2022-10-17T04:47:15;7.38;;;2.30;;
66118;SDS011;52912;48.564;9.302;2022-10-17T04:49:41;8.70;;;2.28;;
66118;SDS011;52912;48.564;9.302;2022-10-17T04:52:07;4.47;;;2.20;;
66118;SDS011;52912;48.564;9.302;2022-10-17T04:54:32;5.18;;;2.20;;
66118;SDS011;52912;48.564;9.302;2022-10-17T04:56:58;5.53;;;2.50;;
66118;SDS011;52912;48.564;9.302;2022-10-17T04:59:23;4.18;;;2.17;;
66118;SDS011;52912;48.564;9.302;2022-10-17T05:01:49;5.15;;;2.22;;
66118;SDS011;52912;48.564;9.302;2022-10-17T05:04:14;7.50;;;2.30;;
66118;SDS011;52912;48.564;9.302;2022-10-17T05:06:41;5.95;;;2.35;;
66118;SDS011;52912;48.564;9.302;2022-10-17T05:09:06;6.20;;;2.70;;
66118;SDS011;52912;48.564;9.302;2022-10-17T05:11:32;4.07;;;2.10;;
66118;SDS011;52912;48.564;9.302;2022-10-17T05:13:58;4.68;;;2.20;;
66118;SDS011;52912;48.564;9.302;2022-10-17T05:16:26;9.75;;;2.50;;
66118;SDS011;52912;48.564;9.302;2022-10-17T05:18:53;11.93;;;2.40;;
66118;SDS011;52912;48.564;9.302;2022-10-17T05:21:19;5.07;;;2.35;;
66118;SDS011;52912;48.564;9.302;2022-10-17T05:23:47;11.50;;;2.42;;
66118;SDS011;52912;48.564;9.302;2022-10-17T05:26:13;9.43;;;3.90;;
66118;SDS011;52912;48.564;9.302;2022-10-17T05:28:39;4.15;;;2.30;;
66118;SDS011;52912;48.564;9.302;2022-10-17T05:31:05;6.35;;;2.40;;
66118;SDS011;52912;48.564;9.302;2022-10-17T05:33:31;5.18;;;2.25;;
66118;SDS011;52912;48.564;9.302;2022-10-17T05:35:57;10.13;;;2.45;;
66118;SDS011;52912;48.564;9.302;2022-10-17T05:38:23;8.27;;;2.58;;
66118;SDS011;52912;48.564;9.302;2022-10-17T05:40:50;6.90;;;2.60;;
66118;SDS011;52912;48.564;9.302;2022-10-17T05:43:16;7.63;;;2.55;;
66118;SDS011;52912;48.564;9.302;2022-10-17T05:45:41;9.13;;;2.63;;
66118;SDS011;52912;48.564;9.302;2022-10-17T05:48:07;9.15;;;3.42;;
66118;SDS011;52912;48.564;9.302;2022-10-17T05:50:32;9.68;;;2.92;;
66118;SDS011;52912;48.564;9.302;2022-10-17T05:52:58;19.80;;;3.97;;
66118;SDS011;52912;48.564;9.302;2022-10-17T05:55:23;5.78;;;3.03;;
66118;SDS011;52912;48.564;9.302;2022-10-17T05:57:50;8.52;;;2.80;;
66118;SDS011;52912;48.564;9.302;2022-10-17T06:00:15;10.52;;;2.60;;
66118;SDS011;52912;48.564;9.302;2022-10-17T06:02:41;13.85;;;2.85;;
66118;SDS011;52912;48.564;9.302;2022-10-17T06:05:07;11.27;;;3.45;;
66118;SDS011;52912;48.564;9.302;2022-10-17T06:07:34;10.45;;;3.53;;
66118;SDS011;52912;48.564;9.302;2022-10-17T06:09:59;10.93;;;3.20;;
66118;SDS011;52912;48.564;9.302;2022-10-17T06:12:25;10.40;;;3.22;;
66118;SDS011;52912;48.564;9.302;2022-10-17T06:14:52;7.78;;;3.42;;
66118;SDS011;52912;48.564;9.302;2022-10-17T06:17:17;9.40;;;3.30;;
66118;SDS011;52912;48.564;9.302;2022-10-17T06:19:42;11.63;;;2.88;;
66118;SDS011;52912;48.564;9.302;2022-10-17T06:22:08;8.60;;;3.67;;
66118;SDS011;52912;48.564;9.302;2022-10-17T06:24:34;8.98;;;3.75;;
66118;SDS011;52912;48.564;9.302;2022-10-17T06:26:59;11.85;;;3.20;;
66118;SDS011;52912;48.564;9.302;2022-10-17T06:29:25;8.75;;;3.65;;
66118;SDS011;52912;48.564;9.302;2022-10-17T06:31:51;7.18;;;3.20;;
66118;SDS011;52912;48.564;9.302;2022-10-17T06:34:17;9.23;;;3.72;;
66118;SDS011;52912;48.564;9.302;2022-10-17T06:36:42;23.83;;;11.25;;
66118;SDS011;52912;48.564;9.302;2022-10-17T06:39:08;19.05;;;10.70;;
66118;SDS011;52912;48.564;9.302;2022-10-17T06:41:33;23.10;;;11.68;;
66118;SDS011;52912;48.564;9.302;2022-10-17T06:43:59;18.98;;;10.65;;
66118;SDS011;52912;48.564;9.302;2022-10-17T06:46:24;11.30;;;4.50;;
66118;SDS011;52912;48.564;9.302;2022-10-17T06:48:51;9.90;;;4.40;;
66118;SDS011;52912;48.564;9.302;2022-10-17T06:51:17;11.30;;;3.42;;
66118;SDS011;52912;48.564;9.302;2022-10-17T06:53:42;7.13;;;3.20;;
66118;SDS011;52912;48.564;9.302;2022-10-17T06:56:08;7.85;;;3.35;;
66118;SDS011;52912;48.564;9.302;2022-10-17T06:58:34;6.07;;;3.25;;
66118;SDS011;52912;48.564;9.302;2022-10-17T07:01:02;6.22;;;3.03;;
66118;SDS011;52912;48.564;9.302;2022-10-17T07:03:29;9.27;;;2.90;;
66118;SDS011;52912;48.564;9.302;2022-10-17T07:05:56;7.00;;;3.47;;
66118;SDS011;52912;48.564;9.302;2022-10-17T07:08:21;6.35;;;3.35;;
66118;SDS011;52912;48.564;9.302;2022-10-17T07:10:47;6.85;;;2.90;;
66118;SDS011;52912;48.564;9.302;2022-10-17T07:13:12;10.95;;;3.08;;
66118;SDS011;52912;48.564;9.302;2022-10-17T07:15:38;9.95;;;3.08;;
66118;SDS011;52912;48.564;9.302;2022-10-17T07:18:03;8.93;;;3.47;;
66118;SDS011;52912;48.564;9.302;2022-10-17T07:20:29;6.80;;;2.97;;
66118;SDS011;52912;48.564;9.302;2022-10-17T07:22:56;7.32;;;2.80;;
66118;SDS011;52912;48.564;9.302;2022-10-17T07:25:21;7.68;;;2.90;;
66118;SDS011;52912;48.564;9.302;2022-10-17T07:27:47;5.50;;;3.30;;
66118;SDS011;52912;48.564;9.302;2022-10-17T07:30:13;10.02;;;3.50;;
66118;SDS011;52912;48.564;9.302;2022-10-17T07:32:38;8.73;;;3.38;;
66118;SDS011;52912;48.564;9.302;2022-10-17T07:35:04;5.85;;;3.17;;
66118;SDS011;52912;48.564;9.302;2022-10-17T07:37:30;7.43;;;3.15;;
66118;SDS011;52912;48.564;9.302;2022-10-17T07:39:57;8.13;;;2.95;;
66118;SDS011;52912;48.564;9.302;2022-10-17T07:42:22;5.85;;;3.00;;
66118;SDS011;52912;48.564;9.302;2022-10-17T07:44:48;4.63;;;2.65;;
66118;SDS011;52912;48.564;9.302;2022-10-17T07:47:13;7.30;;;2.90;;
66118;SDS011;52912;48.564;9.302;2022-10-17T07:49:39;10.27;;;2.95;;
66118;SDS011;52912;48.564;9.302;2022-10-17T07:52:04;8.65;;;2.85;;
66118;SDS011;52912;48.564;9.302;2022-10-17T07:54:30;7.18;;;2.70;;
66118;SDS011;52912;48.564;9.302;2022-10-17T07:56:56;5.45;;;2.80;;
66118;SDS011;52912;48.564;9.302;2022-10-17T07:59:22;6.03;;;3.08;;
66118;SDS011;52912;48.564;9.302;2022-10-17T08:01:47;6.63;;;2.92;;
66118;SDS011;52912;48.564;9.302;2022-10-17T08:04:13;6.53;;;2.97;;
66118;SDS011;52912;48.564;9.302;2022-10-17T08:06:38;4.68;;;2.60;;
66118;SDS011;52912;48.564;9.302;2022-10-17T08:09:04;11.38;;;3.13;;
66118;SDS011;52912;48.564;9.302;2022-10-17T08:11:29;12.70;;;2.70;;
66118;SDS011;52912;48.564;9.302;2022-10-17T08:13:56;6.20;;;2.70;;
66118;SDS011;52912;48.564;9.302;2022-10-17T08:16:22;9.35;;;2.90;;
66118;SDS011;52912;48.564;9.302;2022-10-17T08:18:47;7.45;;;3.08;;
66118;SDS011;52912;48.564;9.302;2022-10-17T08:21:13;8.15;;;2.50;;
66118;SDS011;52912;48.564;9.302;2022-10-17T08:23:38;4.68;;;2.60;;
66118;SDS011;52912;48.564;9.302;2022-10-17T08:26:05;5.80;;;2.72;;
66118;SDS011;52912;48.564;9.302;2022-10-17T08:31:03;4.60;;;2.83;;
66118;SDS011;52912;48.564;9.302;2022-10-17T08:33:30;4.85;;;2.60;;
66118;SDS011;52912;48.564;9.302;2022-10-17T08:35:57;8.40;;;2.60;;
66118;SDS011;52912;48.564;9.302;2022-10-17T08:38:22;4.22;;;2.33;;
66118;SDS011;52912;48.564;9.302;2022-10-17T08:40:48;5.93;;;2.42;;
66118;SDS011;52912;48.564;9.302;2022-10-17T08:43:20;10.65;;;2.78;;
66118;SDS011;52912;48.564;9.302;2022-10-17T08:45:53;5.10;;;2.10;;
66118;SDS011;52912;48.564;9.302;2022-10-17T08:48:24;4.95;;;2.28;;
66118;SDS011;52912;48.564;9.302;2022-10-17T08:50:51;5.32;;;2.10;;
66118;SDS011;52912;48.564;9.302;2022-10-17T08:53:21;6.18;;;2.40;;
66118;SDS011;52912;48.564;9.302;2022-10-17T08:55:50;4.93;;;2.22;;
66118;SDS011;52912;48.564;9.302;2022-10-17T08:58:18;6.43;;;2.72;;
66118;SDS011;52912;48.564;9.302;2022-10-17T09:00:47;5.50;;;2.10;;
66118;SDS011;52912;48.564;9.302;2022-10-17T09:03:21;6.45;;;2.08;;
66118;SDS011;52912;48.564;9.302;2022-10-17T09:06:02;7.13;;;2.40;;
66118;SDS011;52912;48.564;9.302;2022-10-17T09:08:36;9.10;;;2.17;;
66118;SDS011;52912;48.564;9.302;2022-10-17T09:11:10;7.90;;;2.38;;
66118;SDS011;52912;48.564;9.302;2022-10-17T09:13:47;6.97;;;2.38;;
66118;SDS011;52912;48.564;9.302;2022-10-17T09:16:30;6.28;;;2.38;;
66118;SDS011;52912;48.564;9.302;2022-10-17T09:19:10;5.38;;;2.95;;
66118;SDS011;52912;48.564;9.302;2022-10-17T09:21:41;9.32;;;2.40;;
66118;SDS011;52912;48.564;9.302;2022-10-17T09:26:37;9.03;;;2.03;;
66118;SDS011;52912;48.564;9.302;2022-10-17T09:29:07;8.52;;;1.83;;
66118;SDS011;52912;48.564;9.302;2022-10-17T09:31:39;6.88;;;2.58;;
66118;SDS011;52912;48.564;9.302;2022-10-17T09:34:10;7.10;;;2.67;;
66118;SDS011;52912;48.564;9.302;2022-10-17T09:36:37;10.63;;;2.40;;
66118;SDS011;52912;48.564;9.302;2022-10-17T09:39:04;6.00;;;2.60;;
66118;SDS011;52912;48.564;9.302;2022-10-17T09:41:35;8.05;;;2.70;;
66118;SDS011;52912;48.564;9.302;2022-10-17T09:44:17;9.05;;;2.63;;
66118;SDS011;52912;48.564;9.302;2022-10-17T09:46:47;6.97;;;2.33;;
66118;SDS011;52912;48.564;9.302;2022-10-17T09:49:25;7.15;;;2.50;;
66118;SDS011;52912;48.564;9.302;2022-10-17T09:51:56;7.18;;;2.45;;
66118;SDS011;52912;48.564;9.302;2022-10-17T09:54:22;11.70;;;2.67;;
66118;SDS011;52912;48.564;9.302;2022-10-17T09:56:57;11.57;;;2.35;;
66118;SDS011;52912;48.564;9.302;2022-10-17T09:59:30;5.80;;;1.98;;
66118;SDS011;52912;48.564;9.302;2022-10-17T10:02:06;3.83;;;2.10;;
66118;SDS011;52912;48.564;9.302;2022-10-17T10:04:34;5.75;;;1.77;;
66118;SDS011;52912;48.564;9.302;2022-10-17T10:07:00;7.53;;;1.98;;
66118;SDS011;52912;48.564;9.302;2022-10-17T10:09:27;4.95;;;1.88;;
66118;SDS011;52912;48.564;9.302;2022-10-17T10:11:55;7.75;;;1.98;;
66118;SDS011;52912;48.564;9.302;2022-10-17T10:14:23;8.65;;;2.25;;
66118;SDS011;52912;48.564;9.302;2022-10-17T10:16:53;4.80;;;1.90;;
66118;SDS011;52912;48.564;9.302;2022-10-17T10:19:19;5.63;;;2.35;;
66118;SDS011;52912;48.564;9.302;2022-10-17T10:21:54;4.25;;;2.00;;
66118;SDS011;52912;48.564;9.302;2022-10-17T10:24:20;2.45;;;1.80;;
66118;SDS011;52912;48.564;9.302;2022-10-17T10:26:46;4.55;;;2.22;;
66118;SDS011;52912;48.564;9.302;2022-10-17T10:29:21;10.23;;;2.17;;
66118;SDS011;52912;48.564;9.302;2022-10-17T10:31:48;7.35;;;2.05;;
66118;SDS011;52912;48.564;9.302;2022-10-17T10:34:17;5.70;;;1.92;;
66118;SDS011;52912;48.564;9.302;2022-10-17T10:36:54;8.13;;;1.90;;
66118;SDS011;52912;48.564;9.302;2022-10-17T10:39:28;6.00;;;2.00;;
66118;SDS011;52912;48.564;9.302;2022-10-17T10:41:57;4.82;;;1.90;;
66118;SDS011;52912;48.564;9.302;2022-10-17T10:44:23;4.60;;;1.90;;
66118;SDS011;52912;48.564;9.302;2022-10-17T10:47:04;5.03;;;1.70;;
66118;SDS011;52912;48.564;9.302;2022-10-17T10:49:38;7.38;;;1.92;;
66118;SDS011;52912;48.564;9.302;2022-10-17T10:52:05;7.82;;;2.10;;
66118;SDS011;52912;48.564;9.302;2022-10-17T10:54:33;8.60;;;1.88;;
66118;SDS011;52912;48.564;9.302;2022-10-17T10:57:04;4.22;;;2.08;;
66118;SDS011;52912;48.564;9.302;2022-10-17T10:59:32;5.75;;;2.45;;
66118;SDS011;52912;48.564;9.302;2022-10-17T11:02:03;6.15;;;2.10;;
66118;SDS011;52912;48.564;9.302;2022-10-17T11:04:38;5.20;;;2.15;;
66118;SDS011;52912;48.564;9.302;2022-10-17T11:07:12;6.20;;;2.10;;
66118;SDS011;52912;48.564;9.302;2022-10-17T11:09:44;9.13;;;2.00;;
66118;SDS011;52912;48.564;9.302;2022-10-17T11:12:15;5.45;;;1.73;;
66118;SDS011;52912;48.564;9.302;2022-10-17T11:14:45;5.10;;;1.90;;
66118;SDS011;52912;48.564;9.302;2022-10-17T11:17:20;7.00;;;1.90;;
66118;SDS011;52912;48.564;9.302;2022-10-17T11:19:53;4.45;;;1.98;;
66118;SDS011;52912;48.564;9.302;2022-10-17T11:22:31;6.20;;;1.88;;
66118;SDS011;52912;48.564;9.302;2022-10-17T11:25:04;3.85;;;1.67;;
66118;SDS011;52912;48.564;9.302;2022-10-17T11:27:39;6.15;;;2.05;;
66118;SDS011;52912;48.564;9.302;2022-10-17T11:30:04;8.57;;;2.10;;
66118;SDS011;52912;48.564;9.302;2022-10-17T11:32:33;8.95;;;1.85;;
66118;SDS011;52912;48.564;9.302;2022-10-17T11:35:03;3.67;;;1.80;;
66118;SDS011;52912;48.564;9.302;2022-10-17T11:37:33;3.75;;;1.80;;
66118;SDS011;52912;48.564;9.302;2022-10-17T11:40:05;12.35;;;1.88;;
66118;SDS011;52912;48.564;9.302;2022-10-17T11:42:40;4.18;;;1.67;;
66118;SDS011;52912;48.564;9.302;2022-10-17T11:45:18;2.63;;;1.70;;
66118;SDS011;52912;48.564;9.302;2022-10-17T11:47:45;5.95;;;1.83;;
66118;SDS011;52912;48.564;9.302;2022-10-17T11:50:19;3.38;;;1.60;;
66118;SDS011;52912;48.564;9.302;2022-10-17T11:52:51;4.43;;;1.90;;
66118;SDS011;52912;48.564;9.302;2022-10-17T11:55:21;4.28;;;1.85;;
66118;SDS011;52912;48.564;9.302;2022-10-17T11:57:53;7.05;;;1.70;;
66118;SDS011;52912;48.564;9.302;2022-10-17T12:00:38;5.40;;;1.70;;
66118;SDS011;52912;48.564;9.302;2022-10-17T12:03:17;2.17;;;1.60;;
66118;SDS011;52912;48.564;9.302;2022-10-17T12:05:51;7.32;;;1.90;;
66118;SDS011;52912;48.564;9.302;2022-10-17T12:08:24;4.43;;;1.80;;
66118;SDS011;52912;48.564;9.302;2022-10-17T12:10:56;7.75;;;2.00;;
66118;SDS011;52912;48.564;9.302;2022-10-17T12:13:50;5.28;;;1.60;;
66118;SDS011;52912;48.564;9.302;2022-10-17T12:21:55;7.82;;;1.80;;
66118;SDS011;52912;48.564;9.302;2022-10-17T12:24:27;4.53;;;1.80;;
66118;SDS011;52912;48.564;9.302;2022-10-17T12:29:46;7.93;;;2.20;;
66118;SDS011;52912;48.564;9.302;2022-10-17T12:32:11;4.05;;;2.00;;
66118;SDS011;52912;48.564;9.302;2022-10-17T12:34:37;4.40;;;1.85;;
66118;SDS011;52912;48.564;9.302;2022-10-17T12:37:03;4.55;;;1.92;;
66118;SDS011;52912;48.564;9.302;2022-10-17T12:42:29;5.85;;;1.60;;
66118;SDS011;52912;48.564;9.302;2022-10-17T12:44:56;5.35;;;1.80;;
66118;SDS011;52912;48.564;9.302;2022-10-17T12:47:34;4.22;;;1.90;;
66118;SDS011;52912;48.564;9.302;2022-10-17T12:50:01;4.38;;;1.70;;
66118;SDS011;52912;48.564;9.302;2022-10-17T12:55:23;5.47;;;1.52;;
66118;SDS011;52912;48.564;9.302;2022-10-17T12:57:50;5.40;;;1.83;;
66118;SDS011;52912;48.564;9.302;2022-10-17T13:00:21;3.78;;;1.33;;
66118;SDS011;52912;48.564;9.302;2022-10-17T13:02:53;5.75;;;1.48;;
66118;SDS011;52912;48.564;9.302;2022-10-17T13:05:23;6.55;;;1.85;;
66118;SDS011;52912;48.564;9.302;2022-10-17T13:07:51;9.52;;;1.60;;
66118;SDS011;52912;48.564;9.302;2022-10-17T13:10:19;3.95;;;1.30;;
66118;SDS011;52912;48.564;9.302;2022-10-17T13:12:48;5.20;;;1.20;;
66118;SDS011;52912;48.564;9.302;2022-10-17T13:15:16;4.20;;;1.40;;
66118;SDS011;52912;48.564;9.302;2022-10-17T13:17:43;6.27;;;1.30;;
66118;SDS011;52912;48.564;9.302;2022-10-17T13:20:16;5.35;;;1.30;;
66118;SDS011;52912;48.564;9.302;2022-10-17T13:22:44;2.85;;;1.27;;
66118;SDS011;52912;48.564;9.302;2022-10-17T13:25:16;7.03;;;1.38;;
66118;SDS011;52912;48.564;9.302;2022-10-17T13:27:43;7.78;;;1.52;;
66118;SDS011;52912;48.564;9.302;2022-10-17T13:30:24;4.30;;;1.50;;
66118;SDS011;52912;48.564;9.302;2022-10-17T13:32:52;5.35;;;1.30;;
66118;SDS011;52912;48.564;9.302;2022-10-17T13:35:21;4.65;;;1.60;;
66118;SDS011;52912;48.564;9.302;2022-10-17T13:37:49;3.60;;;1.52;;
66118;SDS011;52912;48.564;9.302;2022-10-17T13:40:16;4.28;;;1.40;;
66118;SDS011;52912;48.564;9.302;2022-10-17T13:42:44;1.30;;;1.20;;
66118;SDS011;52912;48.564;9.302;2022-10-17T13:45:12;2.17;;;1.42;;
66118;SDS011;52912;48.564;9.302;2022-10-17T13:47:44;4.38;;;1.45;;
66118;SDS011;52912;48.564;9.302;2022-10-17T13:50:15;6.53;;;1.50;;
66118;SDS011;52912;48.564;9.302;2022-10-17T13:52:46;2.17;;;1.35;;
66118;SDS011;52912;48.564;9.302;2022-10-17T13:55:13;2.53;;;1.30;;
66118;SDS011;52912;48.564;9.302;2022-10-17T14:00:09;7.70;;;1.50;;
66118;SDS011;52912;48.564;9.302;2022-10-17T14:02:41;5.50;;;1.88;;
66118;SDS011;52912;48.564;9.302;2022-10-17T14:05:10;5.70;;;1.38;;
66118;SDS011;52912;48.564;9.302;2022-10-17T14:07:37;3.88;;;1.40;;
66118;SDS011;52912;48.564;9.302;2022-10-17T14:10:06;5.55;;;1.40;;
66118;SDS011;52912;48.564;9.302;2022-10-17T14:12:43;5.75;;;1.60;;
66118;SDS011;52912;48.564;9.302;2022-10-17T14:15:08;2.80;;;1.38;;
66118;SDS011;52912;48.564;9.302;2022-10-17T14:17:38;3.78;;;1.40;;
66118;SDS011;52912;48.564;9.302;2022-10-17T14:20:05;3.38;;;1.48;;
66118;SDS011;52912;48.564;9.302;2022-10-17T14:22:33;7.18;;;1.42;;
66118;SDS011;52912;48.564;9.302;2022-10-17T14:24:59;5.43;;;1.30;;
66118;SDS011;52912;48.564;9.302;2022-10-17T14:27:26;3.35;;;1.30;;
66118;SDS011;52912;48.564;9.302;2022-10-17T14:29:54;4.75;;;1.60;;
66118;SDS011;52912;48.564;9.302;2022-10-17T14:32:20;6.95;;;1.45;;
66118;SDS011;52912;48.564;9.302;2022-10-17T14:34:50;5.60;;;1.70;;
66118;SDS011;52912;48.564;9.302;2022-10-17T14:37:21;5.70;;;1.70;;
66118;SDS011;52912;48.564;9.302;2022-10-17T14:39:54;3.92;;;1.63;;
66118;SDS011;52912;48.564;9.302;2022-10-17T14:42:22;4.70;;;2.55;;
66118;SDS011;52912;48.564;9.302;2022-10-17T14:44:48;6.60;;;1.90;;
66118;SDS011;52912;48.564;9.302;2022-10-17T14:47:16;7.88;;;1.90;;
66118;SDS011;52912;48.564;9.302;2022-10-17T14:49:46;4.20;;;1.65;;
66118;SDS011;52912;48.564;9.302;2022-10-17T14:55:12;5.03;;;1.65;;
66118;SDS011;52912;48.564;9.302;2022-10-17T14:57:46;7.68;;;1.58;;
66118;SDS011;52912;48.564;9.302;2022-10-17T15:00:12;5.53;;;1.30;;
66118;SDS011;52912;48.564;9.302;2022-10-17T15:02:39;3.80;;;1.30;;
66118;SDS011;52912;48.564;9.302;2022-10-17T15:05:04;2.65;;;1.30;;
66118;SDS011;52912;48.564;9.302;2022-10-17T15:07:30;5.45;;;1.40;;
66118;SDS011;52912;48.564;9.302;2022-10-17T15:09:57;5.22;;;1.70;;
66118;SDS011;52912;48.564;9.302;2022-10-17T15:12:23;3.53;;;1.40;;
66118;SDS011;52912;48.564;9.302;2022-10-17T15:14:49;9.68;;;1.48;;
66118;SDS011;52912;48.564;9.302;2022-10-17T15:17:17;7.10;;;1.55;;
66118;SDS011;52912;48.564;9.302;2022-10-17T15:19:44;4.25;;;1.38;;
66118;SDS011;52912;48.564;9.302;2022-10-17T15:22:09;2.90;;;1.15;;
66118;SDS011;52912;48.564;9.302;2022-10-17T15:24:35;5.60;;;1.58;;
66118;SDS011;52912;48.564;9.302;2022-10-17T15:27:03;8.75;;;1.73;;